Athens, Georgia
Current Conditions -  °F | °C
As of 4:51 AM on Friday 31 Oct 2014 (Local Time) from KAHN Reporting Station
Clear Clear  
Wind Chill: 42°   Ceiling: Unl
Heat Index: 42°   Visibility: 10mi
Dew Point: 40°   Wind: 0mph
Humidity: 92%   Direction: NA
Pressure: 29.92"   Gusts: NA
Location:  33.96°N, 83.37°W
Report Text: KAHN 310851Z AUTO 00000KT 10SM CLR 06/04 A2992 RMK AO2 SLP132 T00560044 56012
Loading
Personal Weather Stations






























Interactive Weather Map
Tropical Storm Tracking
New forecast layout! Learn more

10-Day Weather Forecast

Advertisements
Track Severe Weather on mobile